sensor_id;sensor_type;location;lat;lon;timestamp;P1;durP1;ratioP1;P2;durP2;ratioP2
23730;SDS011;12046;44.702;10.622;2023-06-10T00:02:03;8.82;;;8.02;;
23730;SDS011;12046;44.702;10.622;2023-06-10T00:04:29;8.35;;;7.55;;
23730;SDS011;12046;44.702;10.622;2023-06-10T00:06:55;11.00;;;7.47;;
23730;SDS011;12046;44.702;10.622;2023-06-10T00:09:22;11.65;;;8.07;;
23730;SDS011;12046;44.702;10.622;2023-06-10T00:11:48;8.70;;;7.30;;
23730;SDS011;12046;44.702;10.622;2023-06-10T00:14:13;10.65;;;7.38;;
23730;SDS011;12046;44.702;10.622;2023-06-10T00:16:39;11.75;;;7.50;;
23730;SDS011;12046;44.702;10.622;2023-06-10T00:19:05;13.82;;;6.95;;
23730;SDS011;12046;44.702;10.622;2023-06-10T00:21:32;8.05;;;6.15;;
23730;SDS011;12046;44.702;10.622;2023-06-10T00:24:05;6.50;;;5.70;;
23730;SDS011;12046;44.702;10.622;2023-06-10T00:26:39;9.43;;;6.25;;
23730;SDS011;12046;44.702;10.622;2023-06-10T00:29:05;6.88;;;6.28;;
23730;SDS011;12046;44.702;10.622;2023-06-10T00:31:33;6.75;;;5.78;;
23730;SDS011;12046;44.702;10.622;2023-06-10T00:34:00;7.72;;;6.10;;
23730;SDS011;12046;44.702;10.622;2023-06-10T00:36:26;6.95;;;6.22;;
23730;SDS011;12046;44.702;10.622;2023-06-10T00:38:52;6.93;;;6.00;;
23730;SDS011;12046;44.702;10.622;2023-06-10T00:41:17;7.63;;;6.50;;
23730;SDS011;12046;44.702;10.622;2023-06-10T00:43:43;6.70;;;6.00;;
23730;SDS011;12046;44.702;10.622;2023-06-10T00:46:09;6.55;;;5.97;;
23730;SDS011;12046;44.702;10.622;2023-06-10T00:48:37;6.38;;;5.30;;
23730;SDS011;12046;44.702;10.622;2023-06-10T00:51:04;7.65;;;5.30;;
23730;SDS011;12046;44.702;10.622;2023-06-10T00:53:31;8.38;;;4.68;;
23730;SDS011;12046;44.702;10.622;2023-06-10T00:55:57;5.95;;;4.32;;
23730;SDS011;12046;44.702;10.622;2023-06-10T00:58:24;6.25;;;4.88;;
23730;SDS011;12046;44.702;10.622;2023-06-10T01:00:50;5.25;;;4.10;;
23730;SDS011;12046;44.702;10.622;2023-06-10T01:03:16;7.05;;;4.28;;
23730;SDS011;12046;44.702;10.622;2023-06-10T01:05:43;4.80;;;3.88;;
23730;SDS011;12046;44.702;10.622;2023-06-10T01:11:03;6.63;;;3.60;;
23730;SDS011;12046;44.702;10.622;2023-06-10T01:13:33;8.20;;;3.90;;
23730;SDS011;12046;44.702;10.622;2023-06-10T01:16:03;4.00;;;3.60;;
23730;SDS011;12046;44.702;10.622;2023-06-10T01:18:29;5.35;;;3.47;;
23730;SDS011;12046;44.702;10.622;2023-06-10T01:20:56;3.85;;;3.47;;
23730;SDS011;12046;44.702;10.622;2023-06-10T01:23:22;6.55;;;3.80;;
23730;SDS011;12046;44.702;10.622;2023-06-10T01:26:02;3.90;;;3.50;;
23730;SDS011;12046;44.702;10.622;2023-06-10T01:31:14;4.40;;;3.97;;
23730;SDS011;12046;44.702;10.622;2023-06-10T01:33:43;4.70;;;3.58;;
23730;SDS011;12046;44.702;10.622;2023-06-10T01:36:12;4.13;;;3.33;;
23730;SDS011;12046;44.702;10.622;2023-06-10T01:38:42;3.97;;;3.22;;
23730;SDS011;12046;44.702;10.622;2023-06-10T01:41:09;4.85;;;3.20;;
23730;SDS011;12046;44.702;10.622;2023-06-10T01:43:38;4.40;;;3.72;;
23730;SDS011;12046;44.702;10.622;2023-06-10T01:46:04;3.75;;;3.42;;
23730;SDS011;12046;44.702;10.622;2023-06-10T01:48:31;4.25;;;3.20;;
23730;SDS011;12046;44.702;10.622;2023-06-10T01:50:57;4.70;;;3.45;;
23730;SDS011;12046;44.702;10.622;2023-06-10T01:53:23;5.90;;;4.00;;
23730;SDS011;12046;44.702;10.622;2023-06-10T01:55:49;8.23;;;3.17;;
23730;SDS011;12046;44.702;10.622;2023-06-10T01:58:14;5.30;;;3.30;;
23730;SDS011;12046;44.702;10.622;2023-06-10T02:00:40;4.63;;;3.00;;
23730;SDS011;12046;44.702;10.622;2023-06-10T02:03:06;5.40;;;3.35;;
23730;SDS011;12046;44.702;10.622;2023-06-10T02:05:32;7.95;;;3.50;;
23730;SDS011;12046;44.702;10.622;2023-06-10T02:07:57;5.63;;;3.20;;
23730;SDS011;12046;44.702;10.622;2023-06-10T02:10:23;3.55;;;2.72;;
23730;SDS011;12046;44.702;10.622;2023-06-10T02:12:49;3.95;;;3.20;;
23730;SDS011;12046;44.702;10.622;2023-06-10T02:15:15;4.93;;;3.40;;
23730;SDS011;12046;44.702;10.622;2023-06-10T02:17:41;5.35;;;3.03;;
23730;SDS011;12046;44.702;10.622;2023-06-10T02:20:07;5.18;;;3.60;;
23730;SDS011;12046;44.702;10.622;2023-06-10T02:22:36;3.85;;;3.13;;
23730;SDS011;12046;44.702;10.622;2023-06-10T02:25:02;5.50;;;3.55;;
23730;SDS011;12046;44.702;10.622;2023-06-10T02:27:28;3.38;;;3.08;;
23730;SDS011;12046;44.702;10.622;2023-06-10T02:29:55;4.38;;;3.47;;
23730;SDS011;12046;44.702;10.622;2023-06-10T02:32:21;4.82;;;3.67;;
23730;SDS011;12046;44.702;10.622;2023-06-10T02:34:47;6.35;;;3.20;;
23730;SDS011;12046;44.702;10.622;2023-06-10T02:37:14;5.00;;;3.58;;
23730;SDS011;12046;44.702;10.622;2023-06-10T02:39:40;3.90;;;3.60;;
23730;SDS011;12046;44.702;10.622;2023-06-10T02:42:06;4.68;;;4.00;;
23730;SDS011;12046;44.702;10.622;2023-06-10T02:44:32;4.90;;;4.40;;
23730;SDS011;12046;44.702;10.622;2023-06-10T02:46:58;5.22;;;4.72;;
23730;SDS011;12046;44.702;10.622;2023-06-10T02:49:24;6.25;;;5.40;;
23730;SDS011;12046;44.702;10.622;2023-06-10T02:51:52;4.88;;;4.47;;
23730;SDS011;12046;44.702;10.622;2023-06-10T02:54:19;5.53;;;5.05;;
23730;SDS011;12046;44.702;10.622;2023-06-10T02:56:48;5.85;;;5.07;;
23730;SDS011;12046;44.702;10.622;2023-06-10T02:59:14;5.55;;;5.05;;
23730;SDS011;12046;44.702;10.622;2023-06-10T03:01:40;5.80;;;4.50;;
23730;SDS011;12046;44.702;10.622;2023-06-10T03:04:06;5.32;;;4.03;;
23730;SDS011;12046;44.702;10.622;2023-06-10T03:06:32;4.82;;;4.05;;
23730;SDS011;12046;44.702;10.622;2023-06-10T03:09:02;5.25;;;4.78;;
23730;SDS011;12046;44.702;10.622;2023-06-10T03:11:32;5.75;;;5.15;;
23730;SDS011;12046;44.702;10.622;2023-06-10T07:42:06;5.80;;;4.88;;
23730;SDS011;12046;44.702;10.622;2023-06-10T07:44:32;4.43;;;4.00;;
23730;SDS011;12046;44.702;10.622;2023-06-10T07:46:57;6.82;;;4.45;;
23730;SDS011;12046;44.702;10.622;2023-06-10T07:49:23;5.30;;;4.50;;
23730;SDS011;12046;44.702;10.622;2023-06-10T07:51:49;4.32;;;3.53;;
23730;SDS011;12046;44.702;10.622;2023-06-10T07:54:15;3.28;;;2.92;;
23730;SDS011;12046;44.702;10.622;2023-06-10T07:56:41;8.77;;;3.20;;
23730;SDS011;12046;44.702;10.622;2023-06-10T07:59:07;3.65;;;3.15;;
23730;SDS011;12046;44.702;10.622;2023-06-10T08:01:33;4.40;;;3.35;;
23730;SDS011;12046;44.702;10.622;2023-06-10T08:04:01;4.13;;;3.60;;
23730;SDS011;12046;44.702;10.622;2023-06-10T08:06:27;3.13;;;2.92;;
23730;SDS011;12046;44.702;10.622;2023-06-10T08:08:53;3.10;;;2.80;;
23730;SDS011;12046;44.702;10.622;2023-06-10T08:11:18;5.03;;;2.70;;
23730;SDS011;12046;44.702;10.622;2023-06-10T08:13:44;5.38;;;2.80;;
23730;SDS011;12046;44.702;10.622;2023-06-10T08:16:10;3.92;;;3.03;;
23730;SDS011;12046;44.702;10.622;2023-06-10T08:18:36;3.22;;;2.90;;
23730;SDS011;12046;44.702;10.622;2023-06-10T08:21:01;5.70;;;3.90;;
23730;SDS011;12046;44.702;10.622;2023-06-10T08:23:27;7.13;;;3.53;;
23730;SDS011;12046;44.702;10.622;2023-06-10T08:25:53;5.55;;;3.78;;
23730;SDS011;12046;44.702;10.622;2023-06-10T08:28:18;5.93;;;4.18;;
23730;SDS011;12046;44.702;10.622;2023-06-10T08:30:44;4.32;;;3.25;;
23730;SDS011;12046;44.702;10.622;2023-06-10T08:33:10;3.60;;;3.30;;
23730;SDS011;12046;44.702;10.622;2023-06-10T08:35:36;5.43;;;3.20;;
23730;SDS011;12046;44.702;10.622;2023-06-10T08:38:01;3.45;;;3.15;;
23730;SDS011;12046;44.702;10.622;2023-06-10T08:40:27;3.20;;;2.90;;
23730;SDS011;12046;44.702;10.622;2023-06-10T08:43:39;5.10;;;3.40;;
23730;SDS011;12046;44.702;10.622;2023-06-10T08:45:58;3.47;;;3.17;;
23730;SDS011;12046;44.702;10.622;2023-06-10T08:48:26;3.10;;;2.75;;
23730;SDS011;12046;44.702;10.622;2023-06-10T08:50:55;5.30;;;2.75;;
23730;SDS011;12046;44.702;10.622;2023-06-10T08:53:22;3.15;;;2.50;;
23730;SDS011;12046;44.702;10.622;2023-06-10T08:55:52;2.50;;;2.30;;
23730;SDS011;12046;44.702;10.622;2023-06-10T08:58:19;5.30;;;2.53;;
23730;SDS011;12046;44.702;10.622;2023-06-10T09:00:45;4.97;;;2.50;;
23730;SDS011;12046;44.702;10.622;2023-06-10T09:03:11;2.42;;;2.03;;
23730;SDS011;12046;44.702;10.622;2023-06-10T09:05:37;4.78;;;2.58;;
23730;SDS011;12046;44.702;10.622;2023-06-10T09:08:05;2.60;;;2.03;;
23730;SDS011;12046;44.702;10.622;2023-06-10T09:10:32;3.83;;;2.03;;
23730;SDS011;12046;44.702;10.622;2023-06-10T09:12:58;4.63;;;2.35;;
23730;SDS011;12046;44.702;10.622;2023-06-10T09:15:24;3.28;;;2.63;;
23730;SDS011;12046;44.702;10.622;2023-06-10T09:17:50;1.58;;;1.48;;
23730;SDS011;12046;44.702;10.622;2023-06-10T09:20:16;4.63;;;1.98;;
23730;SDS011;12046;44.702;10.622;2023-06-10T09:22:42;2.40;;;1.92;;
23730;SDS011;12046;44.702;10.622;2023-06-10T09:25:09;4.32;;;2.25;;
23730;SDS011;12046;44.702;10.622;2023-06-10T09:27:55;3.92;;;1.65;;
23730;SDS011;12046;44.702;10.622;2023-06-10T09:30:31;3.83;;;1.90;;
23730;SDS011;12046;44.702;10.622;2023-06-10T09:33:03;2.88;;;1.40;;
23730;SDS011;12046;44.702;10.622;2023-06-10T09:35:45;1.95;;;1.63;;
23730;SDS011;12046;44.702;10.622;2023-06-10T09:38:15;4.47;;;1.80;;
23730;SDS011;12046;44.702;10.622;2023-06-10T09:40:54;3.22;;;1.92;;
23730;SDS011;12046;44.702;10.622;2023-06-10T09:43:21;4.60;;;1.70;;
23730;SDS011;12046;44.702;10.622;2023-06-10T09:45:47;4.05;;;1.92;;
23730;SDS011;12046;44.702;10.622;2023-06-10T09:48:14;4.43;;;1.55;;
23730;SDS011;12046;44.702;10.622;2023-06-10T09:50:43;4.43;;;1.73;;
23730;SDS011;12046;44.702;10.622;2023-06-10T09:53:10;5.75;;;2.65;;
23730;SDS011;12046;44.702;10.622;2023-06-10T09:55:39;4.57;;;1.70;;
23730;SDS011;12046;44.702;10.622;2023-06-10T09:58:07;4.85;;;2.15;;
23730;SDS011;12046;44.702;10.622;2023-06-10T10:00:33;3.88;;;1.70;;
23730;SDS011;12046;44.702;10.622;2023-06-10T10:02:59;2.90;;;1.77;;
23730;SDS011;12046;44.702;10.622;2023-06-10T10:05:25;3.85;;;1.75;;
23730;SDS011;12046;44.702;10.622;2023-06-10T10:07:52;2.78;;;1.67;;
23730;SDS011;12046;44.702;10.622;2023-06-10T10:10:21;5.47;;;1.98;;
23730;SDS011;12046;44.702;10.622;2023-06-10T10:12:47;3.30;;;1.80;;
23730;SDS011;12046;44.702;10.622;2023-06-10T10:15:16;4.40;;;1.83;;
23730;SDS011;12046;44.702;10.622;2023-06-10T10:17:49;3.97;;;1.77;;
23730;SDS011;12046;44.702;10.622;2023-06-10T10:20:22;6.25;;;1.75;;
23730;SDS011;12046;44.702;10.622;2023-06-10T10:22:52;4.45;;;1.70;;
23730;SDS011;12046;44.702;10.622;2023-06-10T10:25:23;5.32;;;1.98;;
23730;SDS011;12046;44.702;10.622;2023-06-10T10:27:51;2.42;;;1.75;;
23730;SDS011;12046;44.702;10.622;2023-06-10T10:30:22;1.90;;;1.60;;
23730;SDS011;12046;44.702;10.622;2023-06-10T10:32:52;2.72;;;1.70;;
23730;SDS011;12046;44.702;10.622;2023-06-10T10:35:26;2.42;;;1.42;;
23730;SDS011;12046;44.702;10.622;2023-06-10T10:37:53;3.17;;;1.75;;
23730;SDS011;12046;44.702;10.622;2023-06-10T10:40:23;2.33;;;2.08;;
23730;SDS011;12046;44.702;10.622;2023-06-10T10:42:50;6.40;;;2.00;;
23730;SDS011;12046;44.702;10.622;2023-06-10T10:45:17;2.85;;;1.88;;
23730;SDS011;12046;44.702;10.622;2023-06-10T10:47:47;2.10;;;1.85;;
23730;SDS011;12046;44.702;10.622;2023-06-10T10:50:18;5.97;;;2.28;;
23730;SDS011;12046;44.702;10.622;2023-06-10T10:55:25;2.85;;;2.25;;
23730;SDS011;12046;44.702;10.622;2023-06-10T11:00:33;3.25;;;2.30;;
23730;SDS011;12046;44.702;10.622;2023-06-10T11:03:07;4.85;;;2.30;;
23730;SDS011;12046;44.702;10.622;2023-06-10T11:08:03;4.55;;;2.55;;
23730;SDS011;12046;44.702;10.622;2023-06-10T11:10:31;4.20;;;2.80;;
23730;SDS011;12046;44.702;10.622;2023-06-10T11:13:13;3.45;;;2.63;;
23730;SDS011;12046;44.702;10.622;2023-06-10T11:15:43;6.55;;;2.63;;
23730;SDS011;12046;44.702;10.622;2023-06-10T11:20:45;6.43;;;3.63;;
23730;SDS011;12046;44.702;10.622;2023-06-10T11:26:43;3.38;;;3.08;;
23730;SDS011;12046;44.702;10.622;2023-06-10T11:31:19;4.88;;;3.22;;
23730;SDS011;12046;44.702;10.622;2023-06-10T11:33:48;4.57;;;3.22;;
23730;SDS011;12046;44.702;10.622;2023-06-10T11:36:25;7.32;;;3.60;;
23730;SDS011;12046;44.702;10.622;2023-06-10T11:39:00;4.72;;;4.15;;
23730;SDS011;12046;44.702;10.622;2023-06-10T11:41:28;6.53;;;4.38;;
23730;SDS011;12046;44.702;10.622;2023-06-10T11:44:09;4.88;;;4.00;;
23730;SDS011;12046;44.702;10.622;2023-06-10T11:46:36;4.82;;;4.03;;
23730;SDS011;12046;44.702;10.622;2023-06-10T11:49:02;6.95;;;4.10;;
23730;SDS011;12046;44.702;10.622;2023-06-10T11:51:29;5.20;;;3.78;;
23730;SDS011;12046;44.702;10.622;2023-06-10T11:53:57;4.75;;;4.28;;
23730;SDS011;12046;44.702;10.622;2023-06-10T11:56:24;4.63;;;4.22;;
23730;SDS011;12046;44.702;10.622;2023-06-10T12:01:26;8.38;;;5.07;;
23730;SDS011;12046;44.702;10.622;2023-06-10T12:03:58;4.88;;;4.43;;
23730;SDS011;12046;44.702;10.622;2023-06-10T12:08:53;4.18;;;3.78;;
23730;SDS011;12046;44.702;10.622;2023-06-10T12:11:19;7.10;;;6.40;;
23730;SDS011;12046;44.702;10.622;2023-06-10T12:13:46;6.43;;;5.82;;
23730;SDS011;12046;44.702;10.622;2023-06-10T12:16:15;6.28;;;4.90;;
23730;SDS011;12046;44.702;10.622;2023-06-10T12:18:44;5.93;;;4.97;;
23730;SDS011;12046;44.702;10.622;2023-06-10T12:21:15;6.35;;;5.03;;
23730;SDS011;12046;44.702;10.622;2023-06-10T12:24:06;5.30;;;4.45;;
23730;SDS011;12046;44.702;10.622;2023-06-10T12:26:42;5.85;;;5.25;;
23730;SDS011;12046;44.702;10.622;2023-06-10T12:29:16;10.93;;;4.78;;
23730;SDS011;12046;44.702;10.622;2023-06-10T12:31:57;6.63;;;5.85;;
23730;SDS011;12046;44.702;10.622;2023-06-10T12:34:31;6.05;;;4.78;;
23730;SDS011;12046;44.702;10.622;2023-06-10T12:37:01;6.78;;;4.55;;
23730;SDS011;12046;44.702;10.622;2023-06-10T12:39:32;9.60;;;6.75;;
23730;SDS011;12046;44.702;10.622;2023-06-10T12:41:59;12.25;;;6.15;;
23730;SDS011;12046;44.702;10.622;2023-06-10T12:44:29;6.53;;;5.50;;
23730;SDS011;12046;44.702;10.622;2023-06-10T12:47:07;9.35;;;7.03;;
23730;SDS011;12046;44.702;10.622;2023-06-10T12:49:37;6.68;;;5.45;;
23730;SDS011;12046;44.702;10.622;2023-06-10T12:52:04;8.18;;;4.68;;
23730;SDS011;12046;44.702;10.622;2023-06-10T12:54:30;5.20;;;4.63;;
23730;SDS011;12046;44.702;10.622;2023-06-10T12:56:59;6.18;;;5.57;;
23730;SDS011;12046;44.702;10.622;2023-06-10T12:59:26;6.70;;;5.20;;
23730;SDS011;12046;44.702;10.622;2023-06-10T13:01:52;9.32;;;6.57;;
23730;SDS011;12046;44.702;10.622;2023-06-10T13:04:19;6.95;;;5.32;;
23730;SDS011;12046;44.702;10.622;2023-06-10T13:06:46;7.07;;;5.35;;
23730;SDS011;12046;44.702;10.622;2023-06-10T13:09:12;8.23;;;5.70;;
23730;SDS011;12046;44.702;10.622;2023-06-10T13:11:39;9.95;;;6.35;;
23730;SDS011;12046;44.702;10.622;2023-06-10T13:14:05;6.97;;;6.00;;
23730;SDS011;12046;44.702;10.622;2023-06-10T13:16:31;7.18;;;5.30;;
23730;SDS011;12046;44.702;10.622;2023-06-10T13:18:57;7.57;;;5.32;;
23730;SDS011;12046;44.702;10.622;2023-06-10T13:21:24;7.35;;;6.15;;
23730;SDS011;12046;44.702;10.622;2023-06-10T13:23:50;9.07;;;5.70;;
23730;SDS011;12046;44.702;10.622;2023-06-10T13:26:17;7.10;;;5.70;;
23730;SDS011;12046;44.702;10.622;2023-06-10T13:28:45;10.63;;;5.15;;
23730;SDS011;12046;44.702;10.622;2023-06-10T13:31:11;6.18;;;4.32;;
23730;SDS011;12046;44.702;10.622;2023-06-10T13:33:37;7.38;;;4.47;;
23730;SDS011;12046;44.702;10.622;2023-06-10T13:36:03;4.82;;;4.28;;
23730;SDS011;12046;44.702;10.622;2023-06-10T13:38:29;5.88;;;3.90;;
23730;SDS011;12046;44.702;10.622;2023-06-10T13:40:55;6.68;;;4.75;;
23730;SDS011;12046;44.702;10.622;2023-06-10T13:43:21;6.28;;;3.90;;
23730;SDS011;12046;44.702;10.622;2023-06-10T13:45:47;7.47;;;4.60;;
23730;SDS011;12046;44.702;10.622;2023-06-10T13:48:12;5.25;;;4.22;;
23730;SDS011;12046;44.702;10.622;2023-06-10T13:50:38;5.43;;;4.93;;
23730;SDS011;12046;44.702;10.622;2023-06-10T13:53:04;8.10;;;4.22;;
23730;SDS011;12046;44.702;10.622;2023-06-10T13:55:30;9.07;;;4.88;;
23730;SDS011;12046;44.702;10.622;2023-06-10T13:57:56;5.70;;;4.93;;
23730;SDS011;12046;44.702;10.622;2023-06-10T14:00:22;7.53;;;5.65;;
23730;SDS011;12046;44.702;10.622;2023-06-10T14:02:48;8.88;;;5.32;;
23730;SDS011;12046;44.702;10.622;2023-06-10T14:05:13;7.63;;;6.00;;
23730;SDS011;12046;44.702;10.622;2023-06-10T14:07:39;6.10;;;5.20;;
23730;SDS011;12046;44.702;10.622;2023-06-10T14:10:06;7.40;;;5.50;;
23730;SDS011;12046;44.702;10.622;2023-06-10T14:12:34;7.20;;;5.75;;
23730;SDS011;12046;44.702;10.622;2023-06-10T14:15:00;8.20;;;5.28;;
23730;SDS011;12046;44.702;10.622;2023-06-10T14:17:26;8.00;;;6.18;;
23730;SDS011;12046;44.702;10.622;2023-06-10T14:19:52;7.20;;;5.88;;
23730;SDS011;12046;44.702;10.622;2023-06-10T14:22:18;7.68;;;5.07;;
23730;SDS011;12046;44.702;10.622;2023-06-10T14:24:43;6.20;;;5.60;;
23730;SDS011;12046;44.702;10.622;2023-06-10T14:27:09;7.05;;;4.63;;
23730;SDS011;12046;44.702;10.622;2023-06-10T14:29:35;6.20;;;4.60;;
23730;SDS011;12046;44.702;10.622;2023-06-10T14:32:01;7.68;;;4.63;;
23730;SDS011;12046;44.702;10.622;2023-06-10T14:34:27;5.50;;;4.65;;
23730;SDS011;12046;44.702;10.622;2023-06-10T14:36:55;6.55;;;4.30;;
23730;SDS011;12046;44.702;10.622;2023-06-10T14:39:21;6.53;;;5.45;;
23730;SDS011;12046;44.702;10.622;2023-06-10T14:41:46;7.63;;;5.60;;
23730;SDS011;12046;44.702;10.622;2023-06-10T14:44:12;10.45;;;5.85;;
23730;SDS011;12046;44.702;10.622;2023-06-10T14:46:38;8.90;;;5.97;;
23730;SDS011;12046;44.702;10.622;2023-06-10T14:49:04;7.32;;;5.75;;
23730;SDS011;12046;44.702;10.622;2023-06-10T14:51:30;6.85;;;5.18;;
23730;SDS011;12046;44.702;10.622;2023-06-10T14:53:55;8.23;;;5.63;;
23730;SDS011;12046;44.702;10.622;2023-06-10T14:56:40;6.03;;;4.85;;
23730;SDS011;12046;44.702;10.622;2023-06-10T14:59:05;8.38;;;4.90;;
23730;SDS011;12046;44.702;10.622;2023-06-10T15:01:31;5.50;;;4.95;;
23730;SDS011;12046;44.702;10.622;2023-06-10T15:03:57;9.82;;;6.28;;
23730;SDS011;12046;44.702;10.622;2023-06-10T15:06:23;6.40;;;5.30;;
23730;SDS011;12046;44.702;10.622;2023-06-10T15:08:48;7.28;;;5.35;;
23730;SDS011;12046;44.702;10.622;2023-06-10T15:11:15;8.10;;;5.60;;
23730;SDS011;12046;44.702;10.622;2023-06-10T15:13:43;8.40;;;7.13;;
23730;SDS011;12046;44.702;10.622;2023-06-10T15:16:09;9.07;;;7.78;;
23730;SDS011;12046;44.702;10.622;2023-06-10T15:18:35;8.32;;;7.25;;
23730;SDS011;12046;44.702;10.622;2023-06-10T15:21:01;8.63;;;7.80;;
23730;SDS011;12046;44.702;10.622;2023-06-10T15:23:27;9.57;;;8.57;;
23730;SDS011;12046;44.702;10.622;2023-06-10T15:25:53;10.20;;;8.73;;
23730;SDS011;12046;44.702;10.622;2023-06-10T15:28:18;10.52;;;9.52;;
23730;SDS011;12046;44.702;10.622;2023-06-10T15:30:44;12.00;;;7.88;;
23730;SDS011;12046;44.702;10.622;2023-06-10T15:33:10;9.27;;;8.10;;
23730;SDS011;12046;44.702;10.622;2023-06-10T15:35:36;9.48;;;8.10;;
23730;SDS011;12046;44.702;10.622;2023-06-10T15:38:02;10.15;;;9.15;;
23730;SDS011;12046;44.702;10.622;2023-06-10T15:40:29;9.60;;;8.00;;
23730;SDS011;12046;44.702;10.622;2023-06-10T15:42:55;8.27;;;7.47;;
23730;SDS011;12046;44.702;10.622;2023-06-10T15:45:21;9.55;;;7.57;;
23730;SDS011;12046;44.702;10.622;2023-06-10T15:47:46;9.32;;;7.28;;
23730;SDS011;12046;44.702;10.622;2023-06-10T15:50:12;9.27;;;7.68;;
23730;SDS011;12046;44.702;10.622;2023-06-10T15:52:38;8.75;;;6.30;;
23730;SDS011;12046;44.702;10.622;2023-06-10T15:55:04;7.13;;;5.82;;
23730;SDS011;12046;44.702;10.622;2023-06-10T15:57:30;7.75;;;5.85;;
23730;SDS011;12046;44.702;10.622;2023-06-10T15:59:55;6.80;;;5.78;;
23730;SDS011;12046;44.702;10.622;2023-06-10T16:02:21;8.27;;;7.00;;
23730;SDS011;12046;44.702;10.622;2023-06-10T16:04:47;10.10;;;8.98;;
23730;SDS011;12046;44.702;10.622;2023-06-10T16:07:12;9.18;;;7.97;;
23730;SDS011;12046;44.702;10.622;2023-06-10T16:09:38;9.10;;;8.23;;
23730;SDS011;12046;44.702;10.622;2023-06-10T16:12:04;10.15;;;9.18;;
23730;SDS011;12046;44.702;10.622;2023-06-10T16:14:31;12.43;;;10.52;;
23730;SDS011;12046;44.702;10.622;2023-06-10T16:16:57;11.38;;;10.25;;
23730;SDS011;12046;44.702;10.622;2023-06-10T16:19:23;9.40;;;8.55;;
23730;SDS011;12046;44.702;10.622;2023-06-10T16:21:49;11.25;;;9.38;;
23730;SDS011;12046;44.702;10.622;2023-06-10T16:24:16;13.55;;;10.55;;
23730;SDS011;12046;44.702;10.622;2023-06-10T16:26:42;11.77;;;10.68;;
23730;SDS011;12046;44.702;10.622;2023-06-10T16:29:08;12.32;;;11.02;;
23730;SDS011;12046;44.702;10.622;2023-06-10T16:31:34;11.80;;;10.68;;
23730;SDS011;12046;44.702;10.622;2023-06-10T16:34:00;10.60;;;9.50;;
23730;SDS011;12046;44.702;10.622;2023-06-10T16:36:26;10.15;;;9.35;;
23730;SDS011;12046;44.702;10.622;2023-06-10T16:38:52;11.13;;;10.18;;
23730;SDS011;12046;44.702;10.622;2023-06-10T16:41:20;12.80;;;11.13;;
23730;SDS011;12046;44.702;10.622;2023-06-10T16:43:46;12.55;;;11.35;;
23730;SDS011;12046;44.702;10.622;2023-06-10T16:46:12;13.32;;;11.82;;
23730;SDS011;12046;44.702;10.622;2023-06-10T16:48:38;12.57;;;10.45;;
23730;SDS011;12046;44.702;10.622;2023-06-10T16:51:04;9.88;;;8.88;;
23730;SDS011;12046;44.702;10.622;2023-06-10T16:53:30;7.60;;;6.90;;
23730;SDS011;12046;44.702;10.622;2023-06-10T16:55:56;6.75;;;5.97;;
23730;SDS011;12046;44.702;10.622;2023-06-10T16:58:21;9.18;;;6.00;;
23730;SDS011;12046;44.702;10.622;2023-06-10T17:00:47;8.68;;;6.57;;
23730;SDS011;12046;44.702;10.622;2023-06-10T17:03:14;7.43;;;6.72;;
23730;SDS011;12046;44.702;10.622;2023-06-10T17:05:40;8.40;;;7.50;;
23730;SDS011;12046;44.702;10.622;2023-06-10T17:08:06;8.70;;;7.73;;
23730;SDS011;12046;44.702;10.622;2023-06-10T17:10:32;9.38;;;8.07;;
23730;SDS011;12046;44.702;10.622;2023-06-10T17:12:57;9.05;;;8.25;;
23730;SDS011;12046;44.702;10.622;2023-06-10T17:15:24;8.82;;;8.02;;
23730;SDS011;12046;44.702;10.622;2023-06-10T17:17:50;10.38;;;9.15;;
23730;SDS011;12046;44.702;10.622;2023-06-10T17:20:16;10.52;;;9.20;;
23730;SDS011;12046;44.702;10.622;2023-06-10T17:22:42;9.40;;;8.45;;
23730;SDS011;12046;44.702;10.622;2023-06-10T17:25:08;9.57;;;8.57;;
23730;SDS011;12046;44.702;10.622;2023-06-10T17:27:34;10.70;;;9.70;;
23730;SDS011;12046;44.702;10.622;2023-06-10T17:30:00;9.57;;;8.63;;
23730;SDS011;12046;44.702;10.622;2023-06-10T17:32:26;11.00;;;9.90;;
23730;SDS011;12046;44.702;10.622;2023-06-10T17:34:52;9.77;;;8.77;;
23730;SDS011;12046;44.702;10.622;2023-06-10T17:37:18;10.48;;;9.57;;
23730;SDS011;12046;44.702;10.622;2023-06-10T17:39:47;8.73;;;7.82;;
23730;SDS011;12046;44.702;10.622;2023-06-10T17:42:13;8.20;;;7.45;;
23730;SDS011;12046;44.702;10.622;2023-06-10T17:44:39;9.52;;;8.63;;
23730;SDS011;12046;44.702;10.622;2023-06-10T17:47:05;11.55;;;10.50;;
23730;SDS011;12046;44.702;10.622;2023-06-10T17:49:30;11.68;;;10.23;;
23730;SDS011;12046;44.702;10.622;2023-06-10T17:51:56;11.48;;;10.48;;
23730;SDS011;12046;44.702;10.622;2023-06-10T17:54:22;13.02;;;9.98;;
23730;SDS011;12046;44.702;10.622;2023-06-10T17:56:48;13.10;;;11.80;;
23730;SDS011;12046;44.702;10.622;2023-06-10T17:59:14;10.95;;;9.93;;
23730;SDS011;12046;44.702;10.622;2023-06-10T18:01:40;10.60;;;8.35;;
23730;SDS011;12046;44.702;10.622;2023-06-10T18:04:06;9.27;;;7.82;;
23730;SDS011;12046;44.702;10.622;2023-06-10T18:06:32;8.07;;;7.32;;
23730;SDS011;12046;44.702;10.622;2023-06-10T18:08:58;7.05;;;6.35;;
23730;SDS011;12046;44.702;10.622;2023-06-10T18:11:24;8.15;;;6.43;;
23730;SDS011;12046;44.702;10.622;2023-06-10T18:13:51;8.43;;;7.10;;
23730;SDS011;12046;44.702;10.622;2023-06-10T18:16:17;8.30;;;6.97;;
23730;SDS011;12046;44.702;10.622;2023-06-10T18:18:43;7.88;;;7.07;;
23730;SDS011;12046;44.702;10.622;2023-06-10T18:21:10;8.40;;;6.93;;
23730;SDS011;12046;44.702;10.622;2023-06-10T18:23:36;9.40;;;7.00;;
23730;SDS011;12046;44.702;10.622;2023-06-10T18:26:02;7.95;;;7.15;;
23730;SDS011;12046;44.702;10.622;2023-06-10T18:28:28;7.97;;;7.05;;
23730;SDS011;12046;44.702;10.622;2023-06-10T18:30:57;8.98;;;7.63;;
23730;SDS011;12046;44.702;10.622;2023-06-10T18:33:23;7.45;;;6.75;;
23730;SDS011;12046;44.702;10.622;2023-06-10T18:35:49;8.43;;;7.63;;
23730;SDS011;12046;44.702;10.622;2023-06-10T18:38:15;7.57;;;6.88;;
23730;SDS011;12046;44.702;10.622;2023-06-10T18:40:41;8.48;;;7.40;;
23730;SDS011;12046;44.702;10.622;2023-06-10T18:43:07;8.85;;;7.75;;
23730;SDS011;12046;44.702;10.622;2023-06-10T18:45:34;9.60;;;7.53;;
23730;SDS011;12046;44.702;10.622;2023-06-10T18:48:00;8.80;;;7.93;;
23730;SDS011;12046;44.702;10.622;2023-06-10T18:50:25;10.60;;;7.70;;
23730;SDS011;12046;44.702;10.622;2023-06-10T18:52:52;11.65;;;8.68;;
23730;SDS011;12046;44.702;10.622;2023-06-10T18:55:18;9.32;;;8.13;;
23730;SDS011;12046;44.702;10.622;2023-06-10T18:57:44;9.68;;;8.77;;
23730;SDS011;12046;44.702;10.622;2023-06-10T19:00:09;10.02;;;9.13;;
23730;SDS011;12046;44.702;10.622;2023-06-10T19:02:36;10.15;;;9.15;;
23730;SDS011;12046;44.702;10.622;2023-06-10T19:05:02;11.02;;;10.02;;
23730;SDS011;12046;44.702;10.622;2023-06-10T19:07:28;11.13;;;10.02;;
23730;SDS011;12046;44.702;10.622;2023-06-10T19:09:54;12.25;;;10.38;;
23730;SDS011;12046;44.702;10.622;2023-06-10T19:12:20;11.60;;;9.38;;
23730;SDS011;12046;44.702;10.622;2023-06-10T19:14:47;11.80;;;10.30;;
23730;SDS011;12046;44.702;10.622;2023-06-10T19:17:13;10.95;;;9.73;;
23730;SDS011;12046;44.702;10.622;2023-06-10T19:19:41;11.40;;;10.27;;
23730;SDS011;12046;44.702;10.622;2023-06-10T19:22:07;14.07;;;11.13;;
23730;SDS011;12046;44.702;10.622;2023-06-10T19:24:33;11.10;;;9.95;;
23730;SDS011;12046;44.702;10.622;2023-06-10T19:26:59;10.45;;;9.30;;